Terminal Aerodrome Forecast
Issued by NWS

Home | Current Version | Previous Version | Text Only | Print | Product List | Glossary On
Versions: 1 2 3 4 5 6 7 8 9 10 11 12 13 14 15 16 17 18
000
FTAK31 PAJN 180500
TAFAYA
TAF
PAYA 180520Z 1806/1906 10006KT P6SM VCSH SCT025 BKN040
     FM180800 10007KT P6SM -RA SCT020 OVC035 WS020/10030KT
      TEMPO 1808/1811 5SM -RASN BKN025 OVC035
     FM181100 10012KT 6SM -RA SCT020 OVC030 WS020/10040KT
     FM181400 11012G19KT 5SM -RA BKN025 OVC030 WS020/11040KT
     FM182000 11014G22KT 3SM -RA BR BKN015 OVC030 WS020/12040KT
      AMD LTD TO CLD VIS AND WIND 1806/1810=

USA.gov is the U.S. government's official web portal to all federal, state and local government web resources and services.